sensor_id;sensor_type;location;lat;lon;timestamp;temperature;humidity
43651;DHT22;29247;50.944;5.382;2023-04-21T00:02:03;9.90;80.70
43651;DHT22;29247;50.944;5.382;2023-04-21T00:04:29;9.90;80.70
43651;DHT22;29247;50.944;5.382;2023-04-21T00:06:56;9.90;80.60
43651;DHT22;29247;50.944;5.382;2023-04-21T00:09:26;9.90;80.70
43651;DHT22;29247;50.944;5.382;2023-04-21T00:11:54;9.90;81.00
43651;DHT22;29247;50.944;5.382;2023-04-21T00:14:24;9.90;81.00
43651;DHT22;29247;50.944;5.382;2023-04-21T00:16:50;9.90;81.50
43651;DHT22;29247;50.944;5.382;2023-04-21T00:19:19;9.90;81.30
43651;DHT22;29247;50.944;5.382;2023-04-21T00:21:47;9.80;81.40
43651;DHT22;29247;50.944;5.382;2023-04-21T00:24:13;9.80;81.50
43651;DHT22;29247;50.944;5.382;2023-04-21T00:26:38;9.90;81.50
43651;DHT22;29247;50.944;5.382;2023-04-21T00:29:06;9.90;81.60
43651;DHT22;29247;50.944;5.382;2023-04-21T00:31:32;9.90;81.70
43651;DHT22;29247;50.944;5.382;2023-04-21T00:34:00;9.90;81.70
43651;DHT22;29247;50.944;5.382;2023-04-21T00:36:25;9.90;81.90
43651;DHT22;29247;50.944;5.382;2023-04-21T00:38:53;9.90;81.90
43651;DHT22;29247;50.944;5.382;2023-04-21T00:41:18;9.80;82.00
43651;DHT22;29247;50.944;5.382;2023-04-21T00:44:04;9.90;82.10
43651;DHT22;29247;50.944;5.382;2023-04-21T00:46:33;9.80;82.30
43651;DHT22;29247;50.944;5.382;2023-04-21T00:48:59;9.80;82.20
43651;DHT22;29247;50.944;5.382;2023-04-21T00:51:27;9.90;82.40
43651;DHT22;29247;50.944;5.382;2023-04-21T00:53:55;9.90;82.40
43651;DHT22;29247;50.944;5.382;2023-04-21T00:56:21;9.90;82.50
43651;DHT22;29247;50.944;5.382;2023-04-21T00:58:48;9.80;82.50
43651;DHT22;29247;50.944;5.382;2023-04-21T01:01:14;9.80;82.50
43651;DHT22;29247;50.944;5.382;2023-04-21T01:03:41;9.80;82.70
43651;DHT22;29247;50.944;5.382;2023-04-21T01:06:08;9.80;82.90
43651;DHT22;29247;50.944;5.382;2023-04-21T01:08:35;9.80;82.90
43651;DHT22;29247;50.944;5.382;2023-04-21T01:11:11;9.80;83.00
43651;DHT22;29247;50.944;5.382;2023-04-21T01:13:38;9.70;83.10
43651;DHT22;29247;50.944;5.382;2023-04-21T01:16:06;9.80;83.10
43651;DHT22;29247;50.944;5.382;2023-04-21T01:18:33;9.70;83.10
43651;DHT22;29247;50.944;5.382;2023-04-21T01:20:59;9.70;83.20
43651;DHT22;29247;50.944;5.382;2023-04-21T01:23:25;9.80;83.40
43651;DHT22;29247;50.944;5.382;2023-04-21T01:25:51;9.70;83.30
43651;DHT22;29247;50.944;5.382;2023-04-21T01:28:25;9.70;83.40
43651;DHT22;29247;50.944;5.382;2023-04-21T01:30:51;9.70;83.50
43651;DHT22;29247;50.944;5.382;2023-04-21T01:33:18;9.70;83.50
43651;DHT22;29247;50.944;5.382;2023-04-21T01:35:45;9.70;83.50
43651;DHT22;29247;50.944;5.382;2023-04-21T01:38:11;9.70;83.60
43651;DHT22;29247;50.944;5.382;2023-04-21T01:40:37;9.70;83.70
43651;DHT22;29247;50.944;5.382;2023-04-21T01:43:03;9.70;83.70
43651;DHT22;29247;50.944;5.382;2023-04-21T01:45:30;9.70;84.50
43651;DHT22;29247;50.944;5.382;2023-04-21T01:47:58;9.80;83.90
43651;DHT22;29247;50.944;5.382;2023-04-21T01:50:23;9.80;83.90
43651;DHT22;29247;50.944;5.382;2023-04-21T01:52:49;9.80;83.90
43651;DHT22;29247;50.944;5.382;2023-04-21T01:55:15;9.80;84.00
43651;DHT22;29247;50.944;5.382;2023-04-21T01:57:40;9.80;83.90
43651;DHT22;29247;50.944;5.382;2023-04-21T02:00:06;9.80;84.00
43651;DHT22;29247;50.944;5.382;2023-04-21T02:02:33;9.80;84.00
43651;DHT22;29247;50.944;5.382;2023-04-21T02:04:59;9.80;84.00
43651;DHT22;29247;50.944;5.382;2023-04-21T02:07:27;9.70;83.90
43651;DHT22;29247;50.944;5.382;2023-04-21T02:09:53;9.70;83.90
43651;DHT22;29247;50.944;5.382;2023-04-21T02:12:22;9.70;84.00
43651;DHT22;29247;50.944;5.382;2023-04-21T02:14:49;9.70;84.00
43651;DHT22;29247;50.944;5.382;2023-04-21T02:17:15;9.70;83.90
43651;DHT22;29247;50.944;5.382;2023-04-21T02:19:42;9.70;83.90
43651;DHT22;29247;50.944;5.382;2023-04-21T02:22:08;9.70;83.90
43651;DHT22;29247;50.944;5.382;2023-04-21T02:24:35;9.70;83.90
43651;DHT22;29247;50.944;5.382;2023-04-21T02:27:03;9.70;83.90
43651;DHT22;29247;50.944;5.382;2023-04-21T02:29:29;9.80;83.90
43651;DHT22;29247;50.944;5.382;2023-04-21T02:31:55;9.80;84.00
43651;DHT22;29247;50.944;5.382;2023-04-21T02:34:23;9.80;84.00
43651;DHT22;29247;50.944;5.382;2023-04-21T02:36:51;9.70;84.00
43651;DHT22;29247;50.944;5.382;2023-04-21T02:39:17;9.80;84.00
43651;DHT22;29247;50.944;5.382;2023-04-21T02:41:45;9.80;84.00
43651;DHT22;29247;50.944;5.382;2023-04-21T02:44:11;9.80;84.00
43651;DHT22;29247;50.944;5.382;2023-04-21T02:46:39;9.80;84.60
43651;DHT22;29247;50.944;5.382;2023-04-21T02:49:05;9.70;83.80
43651;DHT22;29247;50.944;5.382;2023-04-21T02:51:36;9.70;83.70
43651;DHT22;29247;50.944;5.382;2023-04-21T02:54:02;9.70;83.70
43651;DHT22;29247;50.944;5.382;2023-04-21T02:56:28;9.70;83.70
43651;DHT22;29247;50.944;5.382;2023-04-21T02:58:55;9.70;83.90
43651;DHT22;29247;50.944;5.382;2023-04-21T03:01:26;9.60;83.90
43651;DHT22;29247;50.944;5.382;2023-04-21T03:03:54;9.70;84.00
43651;DHT22;29247;50.944;5.382;2023-04-21T03:06:19;9.60;83.90
43651;DHT22;29247;50.944;5.382;2023-04-21T03:08:45;9.60;83.90
43651;DHT22;29247;50.944;5.382;2023-04-21T03:11:11;9.60;83.90
43651;DHT22;29247;50.944;5.382;2023-04-21T03:13:42;9.50;83.90
43651;DHT22;29247;50.944;5.382;2023-04-21T03:16:08;9.50;84.00
43651;DHT22;29247;50.944;5.382;2023-04-21T03:18:36;9.50;84.00
43651;DHT22;29247;50.944;5.382;2023-04-21T03:21:02;9.40;84.00
43651;DHT22;29247;50.944;5.382;2023-04-21T03:23:28;9.40;84.10
43651;DHT22;29247;50.944;5.382;2023-04-21T03:25:54;9.40;84.20
43651;DHT22;29247;50.944;5.382;2023-04-21T03:28:19;9.30;84.20
43651;DHT22;29247;50.944;5.382;2023-04-21T03:30:45;9.30;84.30
43651;DHT22;29247;50.944;5.382;2023-04-21T03:33:11;9.30;84.30
43651;DHT22;29247;50.944;5.382;2023-04-21T03:35:40;9.30;84.30
43651;DHT22;29247;50.944;5.382;2023-04-21T03:38:06;9.20;85.10
43651;DHT22;29247;50.944;5.382;2023-04-21T03:40:32;9.20;84.50
43651;DHT22;29247;50.944;5.382;2023-04-21T03:42:58;9.20;84.70
43651;DHT22;29247;50.944;5.382;2023-04-21T03:45:24;9.10;84.80
43651;DHT22;29247;50.944;5.382;2023-04-21T03:47:53;9.10;84.90
43651;DHT22;29247;50.944;5.382;2023-04-21T03:50:19;9.10;85.00
43651;DHT22;29247;50.944;5.382;2023-04-21T03:52:45;9.10;85.10
43651;DHT22;29247;50.944;5.382;2023-04-21T03:55:13;9.00;85.30
43651;DHT22;29247;50.944;5.382;2023-04-21T03:57:42;9.00;85.50
43651;DHT22;29247;50.944;5.382;2023-04-21T04:00:09;9.00;85.50
43651;DHT22;29247;50.944;5.382;2023-04-21T04:02:37;9.00;85.50
43651;DHT22;29247;50.944;5.382;2023-04-21T04:05:03;9.10;85.70
43651;DHT22;29247;50.944;5.382;2023-04-21T04:07:31;8.90;85.60
43651;DHT22;29247;50.944;5.382;2023-04-21T04:09:59;8.90;85.70
43651;DHT22;29247;50.944;5.382;2023-04-21T04:12:25;8.90;85.70
43651;DHT22;29247;50.944;5.382;2023-04-21T04:14:50;8.90;85.70
43651;DHT22;29247;50.944;5.382;2023-04-21T04:17:18;8.90;85.70
43651;DHT22;29247;50.944;5.382;2023-04-21T04:19:46;8.90;85.80
43651;DHT22;29247;50.944;5.382;2023-04-21T04:22:12;8.80;85.80
43651;DHT22;29247;50.944;5.382;2023-04-21T04:24:40;8.80;85.80
43651;DHT22;29247;50.944;5.382;2023-04-21T04:27:05;8.80;85.80
43651;DHT22;29247;50.944;5.382;2023-04-21T04:29:33;8.80;85.90
43651;DHT22;29247;50.944;5.382;2023-04-21T04:32:02;8.80;86.00
43651;DHT22;29247;50.944;5.382;2023-04-21T04:34:31;8.80;86.00
43651;DHT22;29247;50.944;5.382;2023-04-21T04:37:02;8.70;85.90
43651;DHT22;29247;50.944;5.382;2023-04-21T04:39:31;8.70;86.00
43651;DHT22;29247;50.944;5.382;2023-04-21T04:41:56;8.70;86.10
43651;DHT22;29247;50.944;5.382;2023-04-21T04:44:24;8.70;86.20
43651;DHT22;29247;50.944;5.382;2023-04-21T04:46:55;8.70;86.20
43651;DHT22;29247;50.944;5.382;2023-04-21T04:49:23;8.70;86.20
43651;DHT22;29247;50.944;5.382;2023-04-21T04:51:49;8.70;86.00
43651;DHT22;29247;50.944;5.382;2023-04-21T04:54:15;8.70;86.10
43651;DHT22;29247;50.944;5.382;2023-04-21T04:56:41;8.60;86.20
43651;DHT22;29247;50.944;5.382;2023-04-21T04:59:06;8.70;86.40
43651;DHT22;29247;50.944;5.382;2023-04-21T05:01:32;8.70;86.50
43651;DHT22;29247;50.944;5.382;2023-04-21T05:03:58;8.60;86.40
43651;DHT22;29247;50.944;5.382;2023-04-21T05:06:27;8.60;87.40
43651;DHT22;29247;50.944;5.382;2023-04-21T05:08:55;8.60;86.80
43651;DHT22;29247;50.944;5.382;2023-04-21T05:11:21;8.60;86.90
43651;DHT22;29247;50.944;5.382;2023-04-21T05:13:47;8.70;86.90
43651;DHT22;29247;50.944;5.382;2023-04-21T05:16:15;8.70;86.90
43651;DHT22;29247;50.944;5.382;2023-04-21T05:18:41;8.70;86.90
43651;DHT22;29247;50.944;5.382;2023-04-21T05:21:07;8.70;86.90
43651;DHT22;29247;50.944;5.382;2023-04-21T05:23:32;8.70;86.80
43651;DHT22;29247;50.944;5.382;2023-04-21T05:25:58;8.70;86.80
43651;DHT22;29247;50.944;5.382;2023-04-21T05:28:26;8.70;86.80
43651;DHT22;29247;50.944;5.382;2023-04-21T05:30:54;8.70;86.80
43651;DHT22;29247;50.944;5.382;2023-04-21T05:33:20;8.80;86.90
43651;DHT22;29247;50.944;5.382;2023-04-21T05:35:48;8.80;87.00
43651;DHT22;29247;50.944;5.382;2023-04-21T05:38:16;8.80;87.20
43651;DHT22;29247;50.944;5.382;2023-04-21T05:40:42;8.90;87.40
43651;DHT22;29247;50.944;5.382;2023-04-21T05:43:07;8.90;87.40
43651;DHT22;29247;50.944;5.382;2023-04-21T05:45:38;8.90;87.30
43651;DHT22;29247;50.944;5.382;2023-04-21T05:48:04;9.00;87.30
43651;DHT22;29247;50.944;5.382;2023-04-21T05:50:32;9.00;87.10
43651;DHT22;29247;50.944;5.382;2023-04-21T05:52:59;9.00;87.00
43651;DHT22;29247;50.944;5.382;2023-04-21T05:55:32;9.10;87.00
43651;DHT22;29247;50.944;5.382;2023-04-21T05:57:58;9.10;86.90
43651;DHT22;29247;50.944;5.382;2023-04-21T06:00:23;9.10;86.90
43651;DHT22;29247;50.944;5.382;2023-04-21T06:02:49;9.10;86.80
43651;DHT22;29247;50.944;5.382;2023-04-21T06:05:17;9.20;86.90
43651;DHT22;29247;50.944;5.382;2023-04-21T06:07:43;9.20;87.00
43651;DHT22;29247;50.944;5.382;2023-04-21T06:10:10;9.20;87.00
43651;DHT22;29247;50.944;5.382;2023-04-21T06:12:36;9.30;87.10
43651;DHT22;29247;50.944;5.382;2023-04-21T06:15:04;9.30;87.00
43651;DHT22;29247;50.944;5.382;2023-04-21T06:17:33;9.40;87.00
43651;DHT22;29247;50.944;5.382;2023-04-21T06:19:58;9.40;87.00
43651;DHT22;29247;50.944;5.382;2023-04-21T06:22:26;9.50;87.00
43651;DHT22;29247;50.944;5.382;2023-04-21T06:24:51;9.50;87.00
43651;DHT22;29247;50.944;5.382;2023-04-21T06:27:17;9.60;87.00
43651;DHT22;29247;50.944;5.382;2023-04-21T06:29:45;9.60;87.00
43651;DHT22;29247;50.944;5.382;2023-04-21T06:32:13;9.70;87.00
43651;DHT22;29247;50.944;5.382;2023-04-21T06:34:39;9.70;86.90
43651;DHT22;29247;50.944;5.382;2023-04-21T06:37:07;9.80;86.90
43651;DHT22;29247;50.944;5.382;2023-04-21T06:39:33;9.80;86.80
43651;DHT22;29247;50.944;5.382;2023-04-21T06:41:59;9.90;86.70
43651;DHT22;29247;50.944;5.382;2023-04-21T06:44:27;9.90;86.50
43651;DHT22;29247;50.944;5.382;2023-04-21T06:46:56;10.00;86.40
43651;DHT22;29247;50.944;5.382;2023-04-21T06:49:24;10.00;86.30
43651;DHT22;29247;50.944;5.382;2023-04-21T06:51:53;10.10;86.10
43651;DHT22;29247;50.944;5.382;2023-04-21T06:54:22;10.10;86.00
43651;DHT22;29247;50.944;5.382;2023-04-21T06:56:50;10.10;85.80
43651;DHT22;29247;50.944;5.382;2023-04-21T06:59:20;10.20;85.50
43651;DHT22;29247;50.944;5.382;2023-04-21T07:01:48;10.30;85.60
43651;DHT22;29247;50.944;5.382;2023-04-21T07:04:19;10.30;85.40
43651;DHT22;29247;50.944;5.382;2023-04-21T07:06:47;10.40;85.20
43651;DHT22;29247;50.944;5.382;2023-04-21T07:09:13;10.50;84.80
43651;DHT22;29247;50.944;5.382;2023-04-21T07:11:39;10.50;84.70
43651;DHT22;29247;50.944;5.382;2023-04-21T07:14:05;10.60;84.60
43651;DHT22;29247;50.944;5.382;2023-04-21T07:16:35;10.60;84.30
43651;DHT22;29247;50.944;5.382;2023-04-21T07:19:03;10.70;84.00
43651;DHT22;29247;50.944;5.382;2023-04-21T07:21:31;10.90;84.20
43651;DHT22;29247;50.944;5.382;2023-04-21T07:24:03;11.10;85.20
43651;DHT22;29247;50.944;5.382;2023-04-21T07:26:32;11.30;85.90
43651;DHT22;29247;50.944;5.382;2023-04-21T07:28:58;11.60;84.30
43651;DHT22;29247;50.944;5.382;2023-04-21T07:31:27;11.70;82.80
43651;DHT22;29247;50.944;5.382;2023-04-21T07:33:53;11.90;81.80
43651;DHT22;29247;50.944;5.382;2023-04-21T07:36:18;12.20;80.80
43651;DHT22;29247;50.944;5.382;2023-04-21T07:38:45;12.40;80.90
43651;DHT22;29247;50.944;5.382;2023-04-21T07:41:10;12.70;78.70
43651;DHT22;29247;50.944;5.382;2023-04-21T07:43:37;13.20;78.00
43651;DHT22;29247;50.944;5.382;2023-04-21T07:46:03;13.60;76.40
43651;DHT22;29247;50.944;5.382;2023-04-21T07:48:33;14.10;74.30
43651;DHT22;29247;50.944;5.382;2023-04-21T07:50:59;14.50;73.70
43651;DHT22;29247;50.944;5.382;2023-04-21T07:53:30;14.90;72.00
43651;DHT22;29247;50.944;5.382;2023-04-21T07:55:56;15.20;69.50
43651;DHT22;29247;50.944;5.382;2023-04-21T07:58:24;15.50;67.60
43651;DHT22;29247;50.944;5.382;2023-04-21T08:00:53;15.70;66.70
43651;DHT22;29247;50.944;5.382;2023-04-21T08:03:21;16.00;66.20
43651;DHT22;29247;50.944;5.382;2023-04-21T08:05:47;16.10;63.90
43651;DHT22;29247;50.944;5.382;2023-04-21T08:08:15;16.30;62.80
43651;DHT22;29247;50.944;5.382;2023-04-21T08:10:47;16.40;62.60
43651;DHT22;29247;50.944;5.382;2023-04-21T08:13:15;16.50;60.20
43651;DHT22;29247;50.944;5.382;2023-04-21T08:15:43;16.60;60.40
43651;DHT22;29247;50.944;5.382;2023-04-21T08:18:09;16.70;60.90
43651;DHT22;29247;50.944;5.382;2023-04-21T08:20:35;17.00;60.60
43651;DHT22;29247;50.944;5.382;2023-04-21T08:23:01;17.20;60.30
43651;DHT22;29247;50.944;5.382;2023-04-21T08:25:29;17.50;59.90
43651;DHT22;29247;50.944;5.382;2023-04-21T08:27:59;17.70;59.00
43651;DHT22;29247;50.944;5.382;2023-04-21T08:30:27;17.90;58.20
43651;DHT22;29247;50.944;5.382;2023-04-21T08:32:55;18.00;58.00
43651;DHT22;29247;50.944;5.382;2023-04-21T08:35:21;18.00;55.30
43651;DHT22;29247;50.944;5.382;2023-04-21T08:37:50;17.90;54.70
43651;DHT22;29247;50.944;5.382;2023-04-21T08:40:18;17.90;54.70
43651;DHT22;29247;50.944;5.382;2023-04-21T08:42:44;17.90;55.50
43651;DHT22;29247;50.944;5.382;2023-04-21T08:45:12;18.10;56.40
43651;DHT22;29247;50.944;5.382;2023-04-21T08:47:39;18.10;56.80
43651;DHT22;29247;50.944;5.382;2023-04-21T08:50:12;18.10;55.50
43651;DHT22;29247;50.944;5.382;2023-04-21T08:52:38;18.10;54.40
43651;DHT22;29247;50.944;5.382;2023-04-21T08:55:05;18.00;54.40
43651;DHT22;29247;50.944;5.382;2023-04-21T08:57:32;18.00;54.90
43651;DHT22;29247;50.944;5.382;2023-04-21T08:59:58;17.90;54.80
43651;DHT22;29247;50.944;5.382;2023-04-21T09:02:24;17.80;54.50
43651;DHT22;29247;50.944;5.382;2023-04-21T09:04:51;17.80;55.20
43651;DHT22;29247;50.944;5.382;2023-04-21T09:07:33;17.70;56.20
43651;DHT22;29247;50.944;5.382;2023-04-21T09:10:00;17.80;56.20
43651;DHT22;29247;50.944;5.382;2023-04-21T09:12:27;17.80;56.50
43651;DHT22;29247;50.944;5.382;2023-04-21T09:14:53;17.90;56.80
43651;DHT22;29247;50.944;5.382;2023-04-21T09:17:27;17.90;56.70
43651;DHT22;29247;50.944;5.382;2023-04-21T09:19:57;18.00;56.60
43651;DHT22;29247;50.944;5.382;2023-04-21T09:22:37;18.00;55.70
43651;DHT22;29247;50.944;5.382;2023-04-21T09:25:02;18.00;55.40
43651;DHT22;29247;50.944;5.382;2023-04-21T09:27:31;18.00;54.80
43651;DHT22;29247;50.944;5.382;2023-04-21T09:30:05;18.00;55.20
43651;DHT22;29247;50.944;5.382;2023-04-21T09:32:39;18.10;55.50
43651;DHT22;29247;50.944;5.382;2023-04-21T09:35:09;18.10;54.80
43651;DHT22;29247;50.944;5.382;2023-04-21T09:37:36;18.10;54.40
43651;DHT22;29247;50.944;5.382;2023-04-21T09:40:02;18.10;55.70
43651;DHT22;29247;50.944;5.382;2023-04-21T09:42:34;18.10;54.70
43651;DHT22;29247;50.944;5.382;2023-04-21T09:45:00;18.10;54.10
43651;DHT22;29247;50.944;5.382;2023-04-21T09:47:28;18.10;54.90
43651;DHT22;29247;50.944;5.382;2023-04-21T09:49:59;18.20;55.00
43651;DHT22;29247;50.944;5.382;2023-04-21T09:52:28;18.30;54.80
43651;DHT22;29247;50.944;5.382;2023-04-21T09:55:00;18.30;54.30
43651;DHT22;29247;50.944;5.382;2023-04-21T09:57:32;18.40;53.70
43651;DHT22;29247;50.944;5.382;2023-04-21T10:00:07;18.50;53.80
43651;DHT22;29247;50.944;5.382;2023-04-21T10:02:42;18.50;53.90
43651;DHT22;29247;50.944;5.382;2023-04-21T10:05:11;18.50;53.90
43651;DHT22;29247;50.944;5.382;2023-04-21T10:07:39;18.60;54.00
43651;DHT22;29247;50.944;5.382;2023-04-21T10:10:25;18.70;53.30
43651;DHT22;29247;50.944;5.382;2023-04-21T10:12:56;18.70;53.00
43651;DHT22;29247;50.944;5.382;2023-04-21T10:15:39;18.80;53.00
43651;DHT22;29247;50.944;5.382;2023-04-21T10:18:23;18.80;52.50
43651;DHT22;29247;50.944;5.382;2023-04-21T10:23:43;18.90;52.10
43651;DHT22;29247;50.944;5.382;2023-04-21T10:26:33;19.00;51.90
43651;DHT22;29247;50.944;5.382;2023-04-21T10:29:06;19.00;50.40
43651;DHT22;29247;50.944;5.382;2023-04-21T10:31:33;19.00;49.20
43651;DHT22;29247;50.944;5.382;2023-04-21T10:37:10;19.00;48.70
43651;DHT22;29247;50.944;5.382;2023-04-21T10:39:51;18.90;49.20
43651;DHT22;29247;50.944;5.382;2023-04-21T10:42:40;19.00;50.10
43651;DHT22;29247;50.944;5.382;2023-04-21T10:45:09;19.10;50.40
43651;DHT22;29247;50.944;5.382;2023-04-21T10:52:43;19.10;49.30
43651;DHT22;29247;50.944;5.382;2023-04-21T10:55:09;19.00;47.40
43651;DHT22;29247;50.944;5.382;2023-04-21T10:57:40;18.90;48.00
43651;DHT22;29247;50.944;5.382;2023-04-21T11:00:08;18.90;48.60
43651;DHT22;29247;50.944;5.382;2023-04-21T11:02:36;18.90;48.80
43651;DHT22;29247;50.944;5.382;2023-04-21T11:05:04;19.00;47.60
43651;DHT22;29247;50.944;5.382;2023-04-21T11:07:30;19.00;47.60
43651;DHT22;29247;50.944;5.382;2023-04-21T11:09:57;19.00;47.90
43651;DHT22;29247;50.944;5.382;2023-04-21T11:12:29;19.00;47.80
43651;DHT22;29247;50.944;5.382;2023-04-21T11:15:01;19.10;48.10
43651;DHT22;29247;50.944;5.382;2023-04-21T11:17:32;19.20;47.90
43651;DHT22;29247;50.944;5.382;2023-04-21T11:19:58;19.30;47.30
43651;DHT22;29247;50.944;5.382;2023-04-21T11:22:27;19.30;46.70
43651;DHT22;29247;50.944;5.382;2023-04-21T11:24:54;19.30;46.10
43651;DHT22;29247;50.944;5.382;2023-04-21T11:27:20;19.30;46.00
43651;DHT22;29247;50.944;5.382;2023-04-21T11:30:06;19.30;46.20
43651;DHT22;29247;50.944;5.382;2023-04-21T11:32:37;19.30;45.50
43651;DHT22;29247;50.944;5.382;2023-04-21T11:35:03;19.30;45.80
43651;DHT22;29247;50.944;5.382;2023-04-21T11:37:33;19.30;45.70
43651;DHT22;29247;50.944;5.382;2023-04-21T11:40:00;19.30;44.50
43651;DHT22;29247;50.944;5.382;2023-04-21T11:42:29;19.30;44.30
43651;DHT22;29247;50.944;5.382;2023-04-21T11:44:59;19.30;44.80
43651;DHT22;29247;50.944;5.382;2023-04-21T11:47:27;19.40;44.60
43651;DHT22;29247;50.944;5.382;2023-04-21T11:49:55;19.50;44.80
43651;DHT22;29247;50.944;5.382;2023-04-21T11:52:31;19.60;44.60
43651;DHT22;29247;50.944;5.382;2023-04-21T11:55:10;19.70;44.90
43651;DHT22;29247;50.944;5.382;2023-04-21T11:57:41;19.70;44.70
43651;DHT22;29247;50.944;5.382;2023-04-21T12:00:11;19.80;44.80
43651;DHT22;29247;50.944;5.382;2023-04-21T12:02:38;19.90;44.10
43651;DHT22;29247;50.944;5.382;2023-04-21T12:05:09;20.00;42.30
43651;DHT22;29247;50.944;5.382;2023-04-21T12:07:45;19.90;41.80
43651;DHT22;29247;50.944;5.382;2023-04-21T12:10:17;20.00;41.60
43651;DHT22;29247;50.944;5.382;2023-04-21T12:12:44;20.00;41.30
43651;DHT22;29247;50.944;5.382;2023-04-21T12:15:20;20.10;41.50
43651;DHT22;29247;50.944;5.382;2023-04-21T12:17:50;20.20;42.30
43651;DHT22;29247;50.944;5.382;2023-04-21T12:20:18;20.30;42.50
43651;DHT22;29247;50.944;5.382;2023-04-21T12:22:47;20.40;41.20
43651;DHT22;29247;50.944;5.382;2023-04-21T12:25:13;20.30;40.00
43651;DHT22;29247;50.944;5.382;2023-04-21T12:27:52;20.30;40.10
43651;DHT22;29247;50.944;5.382;2023-04-21T12:30:19;20.30;41.20
43651;DHT22;29247;50.944;5.382;2023-04-21T12:32:48;20.40;41.30
43651;DHT22;29247;50.944;5.382;2023-04-21T12:35:13;20.40;41.10
43651;DHT22;29247;50.944;5.382;2023-04-21T12:37:39;20.40;40.20
43651;DHT22;29247;50.944;5.382;2023-04-21T12:40:05;20.20;39.00
43651;DHT22;29247;50.944;5.382;2023-04-21T12:42:32;20.10;40.10
43651;DHT22;29247;50.944;5.382;2023-04-21T12:44:58;20.00;40.70
43651;DHT22;29247;50.944;5.382;2023-04-21T12:47:29;20.00;41.00
43651;DHT22;29247;50.944;5.382;2023-04-21T12:49:57;19.90;41.30
43651;DHT22;29247;50.944;5.382;2023-04-21T12:52:22;19.90;41.90
43651;DHT22;29247;50.944;5.382;2023-04-21T12:54:48;19.90;42.30
43651;DHT22;29247;50.944;5.382;2023-04-21T12:57:16;19.90;42.20
43651;DHT22;29247;50.944;5.382;2023-04-21T12:59:44;19.80;40.90
43651;DHT22;29247;50.944;5.382;2023-04-21T13:02:11;19.80;40.30
43651;DHT22;29247;50.944;5.382;2023-04-21T13:04:41;19.70;41.10
43651;DHT22;29247;50.944;5.382;2023-04-21T13:07:07;19.60;41.60
43651;DHT22;29247;50.944;5.382;2023-04-21T13:09:36;19.50;42.10
43651;DHT22;29247;50.944;5.382;2023-04-21T13:12:02;19.50;41.90
43651;DHT22;29247;50.944;5.382;2023-04-21T13:14:28;19.40;42.50
43651;DHT22;29247;50.944;5.382;2023-04-21T13:16:54;19.40;43.40
43651;DHT22;29247;50.944;5.382;2023-04-21T13:19:22;19.50;43.90
43651;DHT22;29247;50.944;5.382;2023-04-21T13:21:51;19.50;42.70
43651;DHT22;29247;50.944;5.382;2023-04-21T13:24:17;19.60;42.20
43651;DHT22;29247;50.944;5.382;2023-04-21T13:26:46;19.60;42.00
43651;DHT22;29247;50.944;5.382;2023-04-21T13:29:14;19.60;42.20
43651;DHT22;29247;50.944;5.382;2023-04-21T13:31:43;19.60;42.10
43651;DHT22;29247;50.944;5.382;2023-04-21T13:34:10;19.50;42.20
43651;DHT22;29247;50.944;5.382;2023-04-21T13:36:41;19.50;41.90
43651;DHT22;29247;50.944;5.382;2023-04-21T13:39:09;19.50;42.90
43651;DHT22;29247;50.944;5.382;2023-04-21T13:41:37;19.60;43.20
43651;DHT22;29247;50.944;5.382;2023-04-21T13:44:03;19.60;43.60
43651;DHT22;29247;50.944;5.382;2023-04-21T13:46:29;19.60;44.00
43651;DHT22;29247;50.944;5.382;2023-04-21T13:48:55;19.60;44.10
43651;DHT22;29247;50.944;5.382;2023-04-21T13:51:20;19.60;44.30
43651;DHT22;29247;50.944;5.382;2023-04-21T13:53:46;19.70;44.40
43651;DHT22;29247;50.944;5.382;2023-04-21T13:56:13;19.80;44.70
43651;DHT22;29247;50.944;5.382;2023-04-21T13:58:39;19.80;44.70
43651;DHT22;29247;50.944;5.382;2023-04-21T14:01:05;19.80;44.00
43651;DHT22;29247;50.944;5.382;2023-04-21T14:03:30;19.80;43.30
43651;DHT22;29247;50.944;5.382;2023-04-21T14:06:01;19.80;43.70
43651;DHT22;29247;50.944;5.382;2023-04-21T14:08:27;19.80;43.80
43651;DHT22;29247;50.944;5.382;2023-04-21T14:10:52;19.80;44.20
43651;DHT22;29247;50.944;5.382;2023-04-21T14:13:18;19.80;43.90
43651;DHT22;29247;50.944;5.382;2023-04-21T14:15:46;19.80;44.30
43651;DHT22;29247;50.944;5.382;2023-04-21T14:18:12;19.80;44.20
43651;DHT22;29247;50.944;5.382;2023-04-21T14:20:37;19.90;44.80
43651;DHT22;29247;50.944;5.382;2023-04-21T14:23:03;19.90;45.00
43651;DHT22;29247;50.944;5.382;2023-04-21T14:25:29;19.90;45.10
43651;DHT22;29247;50.944;5.382;2023-04-21T14:27:55;19.90;44.80
43651;DHT22;29247;50.944;5.382;2023-04-21T14:30:21;19.90;44.10
43651;DHT22;29247;50.944;5.382;2023-04-21T14:32:47;19.90;43.70
43651;DHT22;29247;50.944;5.382;2023-04-21T14:35:15;19.80;43.50
43651;DHT22;29247;50.944;5.382;2023-04-21T14:37:42;19.70;43.90
43651;DHT22;29247;50.944;5.382;2023-04-21T14:40:09;19.70;43.80
43651;DHT22;29247;50.944;5.382;2023-04-21T14:42:35;19.70;44.00
43651;DHT22;29247;50.944;5.382;2023-04-21T14:45:06;19.70;44.50
43651;DHT22;29247;50.944;5.382;2023-04-21T14:47:32;19.70;44.90
43651;DHT22;29247;50.944;5.382;2023-04-21T14:50:00;19.70;45.30
43651;DHT22;29247;50.944;5.382;2023-04-21T14:52:26;19.70;45.30
43651;DHT22;29247;50.944;5.382;2023-04-21T14:54:55;19.70;45.10
43651;DHT22;29247;50.944;5.382;2023-04-21T14:57:21;19.70;45.20
43651;DHT22;29247;50.944;5.382;2023-04-21T14:59:50;19.60;45.10
43651;DHT22;29247;50.944;5.382;2023-04-21T15:02:17;19.60;45.20
43651;DHT22;29247;50.944;5.382;2023-04-21T15:04:43;19.60;44.90
43651;DHT22;29247;50.944;5.382;2023-04-21T15:07:12;19.50;45.00
43651;DHT22;29247;50.944;5.382;2023-04-21T15:09:40;19.40;45.20
43651;DHT22;29247;50.944;5.382;2023-04-21T15:12:10;19.30;45.60
43651;DHT22;29247;50.944;5.382;2023-04-21T15:14:38;19.10;45.40
43651;DHT22;29247;50.944;5.382;2023-04-21T15:17:04;19.10;45.60
43651;DHT22;29247;50.944;5.382;2023-04-21T15:19:30;19.00;46.00
43651;DHT22;29247;50.944;5.382;2023-04-21T15:21:57;18.90;46.40
43651;DHT22;29247;50.944;5.382;2023-04-21T15:24:23;18.90;46.60
43651;DHT22;29247;50.944;5.382;2023-04-21T15:26:49;18.80;46.90
43651;DHT22;29247;50.944;5.382;2023-04-21T15:29:17;18.70;47.50
43651;DHT22;29247;50.944;5.382;2023-04-21T15:31:43;18.60;47.80
43651;DHT22;29247;50.944;5.382;2023-04-21T15:34:09;18.50;47.90
43651;DHT22;29247;50.944;5.382;2023-04-21T15:36:35;18.40;48.30
43651;DHT22;29247;50.944;5.382;2023-04-21T15:39:00;18.30;49.00
43651;DHT22;29247;50.944;5.382;2023-04-21T15:41:29;18.20;49.60
43651;DHT22;29247;50.944;5.382;2023-04-21T15:43:57;18.20;49.80
43651;DHT22;29247;50.944;5.382;2023-04-21T15:46:24;18.20;49.90
43651;DHT22;29247;50.944;5.382;2023-04-21T15:48:52;18.10;49.80
43651;DHT22;29247;50.944;5.382;2023-04-21T15:51:21;18.10;49.50
43651;DHT22;29247;50.944;5.382;2023-04-21T15:53:47;18.00;49.40